createdAt,value
2019-03-27T00:01:10.639Z,3.80
2019-03-27T00:03:41.526Z,2.37
2019-03-27T00:06:13.169Z,3.20
2019-03-27T00:08:44.090Z,3.42
2019-03-27T00:11:16.336Z,4.25
2019-03-27T00:13:48.418Z,3.35
2019-03-27T00:16:19.243Z,4.03
2019-03-27T00:18:50.253Z,3.20
2019-03-27T00:21:21.110Z,3.80
2019-03-27T00:23:51.947Z,3.70
2019-03-27T00:26:22.823Z,6.50
2019-03-27T00:28:54.850Z,8.95
2019-03-27T00:31:25.750Z,5.70
2019-03-27T00:33:56.602Z,6.95
2019-03-27T00:36:27.454Z,3.70
2019-03-27T00:38:58.322Z,4.10
2019-03-27T00:41:29.298Z,5.28
2019-03-27T00:44:00.146Z,4.12
2019-03-27T00:46:31.063Z,4.50
2019-03-27T00:49:01.876Z,6.00
2019-03-27T00:51:33.714Z,3.87
2019-03-27T00:54:04.622Z,3.27
2019-03-27T00:56:35.514Z,6.65
2019-03-27T00:59:06.413Z,4.40
2019-03-27T01:01:37.256Z,8.05
2019-03-27T01:04:08.187Z,5.50
2019-03-27T01:06:39.016Z,6.72
2019-03-27T01:09:09.861Z,8.63
2019-03-27T01:11:40.714Z,4.92
2019-03-27T01:14:11.575Z,4.42
2019-03-27T01:16:42.408Z,3.40
2019-03-27T01:19:13.272Z,10.60
2019-03-27T01:21:44.191Z,4.15
2019-03-27T01:24:15.053Z,3.77
2019-03-27T01:26:45.956Z,5.20
2019-03-27T01:29:17.273Z,5.78
2019-03-27T01:31:48.145Z,5.17
2019-03-27T01:34:19.074Z,3.87
2019-03-27T01:36:50.023Z,3.55
2019-03-27T01:39:20.900Z,4.75
2019-03-27T01:41:51.780Z,5.78
2019-03-27T01:44:22.673Z,18.48
2019-03-27T01:46:53.533Z,3.25
2019-03-27T01:49:24.434Z,4.62
2019-03-27T01:51:55.288Z,4.53
2019-03-27T01:54:26.168Z,4.67
2019-03-27T01:56:57.018Z,3.85
2019-03-27T01:59:28.213Z,3.62
2019-03-27T02:01:59.027Z,4.30
2019-03-27T02:04:29.941Z,6.55
2019-03-27T02:07:00.809Z,5.70
2019-03-27T02:09:31.685Z,6.08
2019-03-27T02:12:02.525Z,3.27
2019-03-27T02:14:33.402Z,4.92
2019-03-27T02:17:04.270Z,3.60
2019-03-27T02:19:35.161Z,4.55
2019-03-27T02:22:06.033Z,6.00
2019-03-27T02:24:36.935Z,4.17
2019-03-27T02:27:07.937Z,7.97
2019-03-27T02:29:39.526Z,5.40
2019-03-27T02:32:10.410Z,6.35
2019-03-27T02:34:41.312Z,3.00
2019-03-27T02:37:12.186Z,5.15
2019-03-27T02:39:44.187Z,3.90
2019-03-27T02:42:15.127Z,4.00
2019-03-27T02:44:47.046Z,3.42
2019-03-27T02:47:17.949Z,7.97
2019-03-27T02:49:48.793Z,5.37
2019-03-27T02:52:19.679Z,3.15
2019-03-27T02:54:50.555Z,2.70
2019-03-27T02:57:21.375Z,4.58
2019-03-27T02:59:53.284Z,6.50
2019-03-27T03:02:24.178Z,5.78
2019-03-27T03:04:55.059Z,5.17
2019-03-27T03:07:26.395Z,5.42
2019-03-27T03:09:57.275Z,10.60
2019-03-27T03:12:28.130Z,3.52
2019-03-27T03:14:58.996Z,5.55
2019-03-27T03:17:29.875Z,3.08
2019-03-27T03:20:00.751Z,7.58
2019-03-27T03:22:31.602Z,5.90
2019-03-27T03:25:02.446Z,6.55
2019-03-27T03:27:33.373Z,4.28
2019-03-27T03:30:04.947Z,4.75
2019-03-27T03:32:35.825Z,4.50
2019-03-27T03:35:07.291Z,10.78
2019-03-27T03:37:38.095Z,4.62
2019-03-27T03:40:09.347Z,4.05
2019-03-27T03:42:41.503Z,3.85
2019-03-27T03:45:12.665Z,13.35
2019-03-27T03:47:43.602Z,4.40
2019-03-27T03:50:37.793Z,7.28
2019-03-27T03:53:10.245Z,9.33
2019-03-27T03:55:41.688Z,2.60
2019-03-27T03:58:14.088Z,5.08
2019-03-27T04:00:45.357Z,3.47
2019-03-27T04:03:16.220Z,6.22
2019-03-27T04:05:47.152Z,5.22
2019-03-27T04:08:18.055Z,6.95
2019-03-27T04:10:48.958Z,9.00
2019-03-27T04:13:19.835Z,13.13
2019-03-27T04:15:50.734Z,9.93
2019-03-27T04:18:21.609Z,4.65
2019-03-27T04:20:52.441Z,8.23
2019-03-27T04:23:23.315Z,4.10
2019-03-27T04:26:09.189Z,4.42
2019-03-27T04:28:26.700Z,5.53
2019-03-27T04:30:57.599Z,3.92
2019-03-27T04:33:28.467Z,4.10
2019-03-27T04:38:40.737Z,8.93
2019-03-27T04:41:11.563Z,13.62
2019-03-27T04:43:43.064Z,6.33
2019-03-27T04:46:13.886Z,9.88
2019-03-27T04:48:44.786Z,5.10
2019-03-27T04:51:16.503Z,12.80
2019-03-27T04:53:47.707Z,4.70
2019-03-27T04:56:18.573Z,11.28
2019-03-27T04:58:49.457Z,10.58
2019-03-27T05:01:21.270Z,5.92
2019-03-27T05:03:52.779Z,4.03
2019-03-27T05:06:23.644Z,4.15
2019-03-27T05:08:54.570Z,8.65
2019-03-27T05:11:25.420Z,5.03
2019-03-27T05:13:56.410Z,8.80
2019-03-27T05:16:27.348Z,14.30
2019-03-27T05:18:58.287Z,8.63
2019-03-27T05:21:29.094Z,8.50
2019-03-27T05:24:00.459Z,6.35
2019-03-27T05:26:31.284Z,8.03
2019-03-27T05:29:02.748Z,5.47
2019-03-27T05:31:33.626Z,5.33
2019-03-27T05:34:05.424Z,6.87
2019-03-27T05:36:36.246Z,9.60
2019-03-27T05:39:07.994Z,7.65
2019-03-27T05:41:38.794Z,11.22
2019-03-27T05:44:10.352Z,11.00
2019-03-27T05:46:41.197Z,7.05
2019-03-27T05:49:11.980Z,7.47
2019-03-27T05:51:42.960Z,11.97
2019-03-27T05:54:13.872Z,8.80
2019-03-27T05:56:44.714Z,6.37
2019-03-27T05:59:15.678Z,6.62
2019-03-27T06:01:46.588Z,8.35
2019-03-27T06:04:20.102Z,7.03
2019-03-27T06:06:52.353Z,5.97
2019-03-27T06:09:23.258Z,5.30
2019-03-27T06:11:54.083Z,8.80
2019-03-27T06:14:24.916Z,4.45
2019-03-27T06:16:55.786Z,7.22
2019-03-27T06:19:26.644Z,10.32
2019-03-27T06:21:57.538Z,12.88
2019-03-27T06:24:28.378Z,7.47
2019-03-27T06:26:59.244Z,7.17
2019-03-27T06:29:30.142Z,7.15
2019-03-27T06:32:00.976Z,7.03
2019-03-27T06:34:31.902Z,6.67
2019-03-27T06:37:02.768Z,6.15
2019-03-27T06:39:33.644Z,10.40
2019-03-27T06:42:04.480Z,8.13
2019-03-27T06:44:35.348Z,7.50
2019-03-27T06:47:06.263Z,7.62
2019-03-27T06:49:37.068Z,6.25
2019-03-27T06:52:09.084Z,18.37
2019-03-27T06:54:39.980Z,7.22
2019-03-27T06:57:10.888Z,7.08
2019-03-27T06:59:42.379Z,7.80
2019-03-27T07:02:13.878Z,9.50
2019-03-27T07:04:45.866Z,6.85
2019-03-27T07:07:16.838Z,8.48
2019-03-27T07:09:47.742Z,10.28
2019-03-27T07:12:21.341Z,9.65
2019-03-27T07:14:51.200Z,7.55
2019-03-27T07:17:22.075Z,8.18
2019-03-27T07:19:52.939Z,7.85
2019-03-27T07:22:23.852Z,7.45
2019-03-27T07:24:54.770Z,7.45
2019-03-27T07:27:25.640Z,5.05
2019-03-27T07:29:56.561Z,6.53
2019-03-27T07:32:27.397Z,6.47
2019-03-27T07:34:58.820Z,7.03
2019-03-27T07:37:29.674Z,8.65
2019-03-27T07:40:00.552Z,5.70
2019-03-27T07:42:31.392Z,3.80
2019-03-27T07:45:02.215Z,11.88
2019-03-27T07:47:33.236Z,5.58
2019-03-27T07:50:04.628Z,6.85
2019-03-27T07:52:35.456Z,6.90
2019-03-27T07:55:18.629Z,19.23
2019-03-27T07:57:39.441Z,5.55
2019-03-27T08:00:13.385Z,8.60
2019-03-27T08:02:44.294Z,6.10
2019-03-27T08:05:15.712Z,5.25
2019-03-27T08:07:46.583Z,5.95
2019-03-27T08:10:17.508Z,12.82
2019-03-27T08:12:49.147Z,5.15
2019-03-27T08:15:20.034Z,6.95
2019-03-27T08:17:50.891Z,20.48
2019-03-27T08:20:22.934Z,5.65
2019-03-27T08:22:53.916Z,4.20
2019-03-27T08:25:24.852Z,3.50
2019-03-27T08:27:55.620Z,6.67
2019-03-27T08:30:26.628Z,3.85
2019-03-27T08:32:59.547Z,3.08
2019-03-27T08:35:31.382Z,4.42
2019-03-27T08:38:02.230Z,4.53
2019-03-27T08:40:33.137Z,3.98
2019-03-27T08:43:04.016Z,4.10
2019-03-27T08:45:34.884Z,4.43
2019-03-27T08:48:05.895Z,3.90
2019-03-27T08:50:37.858Z,3.97
2019-03-27T08:53:08.760Z,3.67
2019-03-27T08:55:39.613Z,4.70
2019-03-27T08:58:10.621Z,5.53
2019-03-27T09:00:50.828Z,4.27
2019-03-27T09:03:21.707Z,4.33
2019-03-27T09:05:54.973Z,7.17
2019-03-27T09:08:25.865Z,4.97
2019-03-27T09:10:56.728Z,3.93
2019-03-27T09:13:27.672Z,5.70
2019-03-27T09:15:58.552Z,5.00
2019-03-27T09:18:29.824Z,4.13
2019-03-27T09:21:00.783Z,3.80
2019-03-27T09:23:31.568Z,4.20
2019-03-27T09:26:02.546Z,5.53
2019-03-27T09:28:33.414Z,6.40
2019-03-27T09:31:04.472Z,7.00
2019-03-27T09:33:35.398Z,5.60
2019-03-27T09:36:07.604Z,5.63
2019-03-27T09:38:38.551Z,12.27
2019-03-27T09:41:09.499Z,4.70
2019-03-27T09:43:40.962Z,7.90
2019-03-27T09:46:12.750Z,7.33
2019-03-27T09:48:43.659Z,5.80
2019-03-27T09:51:15.238Z,5.30
2019-03-27T09:53:46.126Z,5.00
2019-03-27T09:56:19.384Z,5.30
2019-03-27T09:58:49.849Z,5.83
2019-03-27T10:01:21.568Z,6.83
2019-03-27T10:03:52.486Z,4.17
2019-03-27T10:06:42.120Z,5.97
2019-03-27T10:09:13.372Z,5.90
2019-03-27T10:11:44.261Z,7.67
2019-03-27T10:14:15.157Z,6.70
2019-03-27T10:16:46.063Z,4.80
2019-03-27T10:19:16.970Z,4.83
2019-03-27T10:21:47.866Z,3.23
2019-03-27T10:24:18.778Z,5.30
2019-03-27T10:26:49.661Z,3.03
2019-03-27T10:29:20.544Z,3.30
2019-03-27T10:31:51.483Z,3.97
2019-03-27T10:34:22.383Z,3.23
2019-03-27T10:36:54.560Z,3.30
2019-03-27T10:39:25.427Z,6.37
2019-03-27T10:41:56.614Z,3.67
2019-03-27T10:44:27.504Z,5.57
2019-03-27T10:46:58.361Z,3.40
2019-03-27T10:49:29.240Z,3.43
2019-03-27T10:52:00.216Z,2.90
2019-03-27T10:54:31.088Z,4.07
2019-03-27T10:57:03.552Z,3.27
2019-03-27T10:59:34.468Z,3.27
2019-03-27T11:02:05.344Z,3.40
2019-03-27T11:04:36.212Z,3.63
2019-03-27T11:07:07.102Z,3.90
2019-03-27T11:09:39.658Z,4.10
2019-03-27T11:12:10.481Z,3.10
2019-03-27T11:14:41.390Z,3.60
2019-03-27T11:17:12.222Z,3.13
2019-03-27T11:19:43.105Z,3.30
2019-03-27T11:22:13.988Z,3.73
2019-03-27T11:24:44.868Z,5.80
2019-03-27T11:27:15.738Z,3.27
2019-03-27T11:29:47.652Z,4.43
2019-03-27T11:32:18.547Z,5.00
2019-03-27T11:34:49.410Z,4.90
2019-03-27T11:37:20.379Z,3.50
2019-03-27T11:39:51.240Z,3.23
2019-03-27T11:42:22.163Z,4.63
2019-03-27T11:44:53.964Z,2.70
2019-03-27T11:47:24.901Z,3.97
2019-03-27T11:49:55.698Z,4.23
2019-03-27T11:52:29.540Z,2.80
2019-03-27T11:54:59.434Z,5.90
2019-03-27T11:57:30.335Z,3.60
2019-03-27T12:00:01.098Z,2.57
2019-03-27T12:02:32.043Z,4.27
2019-03-27T12:05:02.940Z,4.70
2019-03-27T12:07:33.780Z,2.70
2019-03-27T12:10:05.457Z,8.30
2019-03-27T12:12:37.979Z,2.90
2019-03-27T12:15:09.621Z,2.70
2019-03-27T12:17:40.574Z,4.03
2019-03-27T12:20:12.124Z,3.60
2019-03-27T12:22:56.925Z,3.10
2019-03-27T12:25:16.048Z,4.00
2019-03-27T12:27:48.004Z,2.60
2019-03-27T12:30:18.988Z,2.67
2019-03-27T12:32:49.875Z,4.13
2019-03-27T12:35:20.830Z,2.73
2019-03-27T12:37:53.019Z,3.30
2019-03-27T12:40:23.918Z,6.10
2019-03-27T12:42:54.778Z,4.50
2019-03-27T12:45:25.652Z,3.33
2019-03-27T12:47:56.542Z,2.40
2019-03-27T12:50:27.388Z,3.23
2019-03-27T12:52:58.336Z,3.87
2019-03-27T12:55:29.120Z,3.90
2019-03-27T12:58:00.036Z,4.13
2019-03-27T13:00:32.550Z,3.60
2019-03-27T13:03:03.342Z,3.97
2019-03-27T13:05:34.212Z,2.97
2019-03-27T13:08:05.556Z,5.60
2019-03-27T13:10:36.445Z,2.67
2019-03-27T13:13:07.354Z,2.57
2019-03-27T13:15:38.216Z,3.20
2019-03-27T13:18:09.087Z,3.50
2019-03-27T13:20:40.005Z,2.70
2019-03-27T13:23:10.877Z,2.87
2019-03-27T13:25:41.807Z,4.77
2019-03-27T13:28:13.180Z,2.13
2019-03-27T13:30:44.036Z,3.57
2019-03-27T13:33:14.929Z,3.60
2019-03-27T13:35:45.820Z,4.73
2019-03-27T13:38:17.596Z,3.97
2019-03-27T13:40:48.444Z,3.43
2019-03-27T13:43:19.295Z,3.33
2019-03-27T13:45:50.244Z,3.30
2019-03-27T13:48:21.234Z,3.43
2019-03-27T13:50:52.121Z,2.80
2019-03-27T13:53:23.034Z,5.40
2019-03-27T13:55:53.905Z,3.50
2019-03-27T13:58:24.776Z,2.90
2019-03-27T14:00:55.657Z,3.27
2019-03-27T14:03:26.511Z,5.33
2019-03-27T14:05:57.420Z,2.83
2019-03-27T14:08:29.270Z,7.10
2019-03-27T14:11:00.158Z,3.80
2019-03-27T14:13:31.000Z,3.33
2019-03-27T14:16:01.921Z,3.60
2019-03-27T14:18:32.750Z,4.40
2019-03-27T14:21:03.602Z,4.13
2019-03-27T14:23:34.465Z,7.30
2019-03-27T14:26:06.302Z,3.53
2019-03-27T14:28:37.182Z,3.80
2019-03-27T14:31:08.181Z,4.50
2019-03-27T14:33:39.052Z,3.60
2019-03-27T14:36:09.988Z,3.47
2019-03-27T14:38:41.108Z,3.53
2019-03-27T14:41:14.514Z,4.30
2019-03-27T14:43:45.565Z,4.07
2019-03-27T14:46:17.595Z,10.73
2019-03-27T14:48:49.054Z,3.67
2019-03-27T14:51:19.968Z,3.20
2019-03-27T14:53:50.884Z,2.90
2019-03-27T14:56:22.357Z,6.50
2019-03-27T14:58:53.161Z,3.57
2019-03-27T15:01:23.999Z,3.20
2019-03-27T15:03:54.895Z,3.90
2019-03-27T15:06:25.778Z,3.80
2019-03-27T15:08:56.682Z,4.37
2019-03-27T15:11:27.552Z,4.40
2019-03-27T15:13:58.453Z,4.70
2019-03-27T15:16:29.384Z,4.43
2019-03-27T15:19:00.321Z,4.53
2019-03-27T15:21:31.195Z,4.73
2019-03-27T15:24:02.085Z,6.03
2019-03-27T15:26:32.937Z,7.60
2019-03-27T15:29:03.872Z,8.63
2019-03-27T15:31:35.567Z,5.60
2019-03-27T15:34:06.468Z,4.97
2019-03-27T15:36:37.382Z,4.27
2019-03-27T15:39:09.325Z,5.70
2019-03-27T15:41:40.290Z,5.67
2019-03-27T15:44:11.158Z,5.20
2019-03-27T15:46:42.026Z,4.03
2019-03-27T15:49:12.900Z,4.67
2019-03-27T15:51:43.798Z,4.83
2019-03-27T15:54:14.694Z,10.30
2019-03-27T15:56:45.572Z,5.07
2019-03-27T15:59:16.471Z,7.80
2019-03-27T16:01:47.316Z,7.20
2019-03-27T16:04:18.254Z,11.67
2019-03-27T16:06:49.118Z,5.40
2019-03-27T16:09:21.168Z,7.07
2019-03-27T16:11:52.220Z,5.90
2019-03-27T16:14:23.103Z,4.60
2019-03-27T16:17:12.006Z,5.37
2019-03-27T16:19:26.492Z,5.50
2019-03-27T16:21:57.334Z,5.23
2019-03-27T16:24:28.236Z,4.93
2019-03-27T16:27:04.789Z,4.90
2019-03-27T16:29:31.863Z,5.17
2019-03-27T16:32:02.734Z,4.60
2019-03-27T16:34:33.614Z,5.30
2019-03-27T16:37:04.520Z,5.67
2019-03-27T16:39:36.588Z,5.40
2019-03-27T16:42:07.462Z,11.48
2019-03-27T16:44:38.326Z,4.70
2019-03-27T16:47:09.258Z,4.93
2019-03-27T16:49:40.113Z,7.47
2019-03-27T16:52:11.028Z,5.95
2019-03-27T16:54:41.956Z,4.55
2019-03-27T16:57:12.787Z,5.17
2019-03-27T16:59:46.464Z,5.67
2019-03-27T17:02:17.421Z,4.40
2019-03-27T17:04:48.701Z,4.25
2019-03-27T17:07:19.604Z,6.62
2019-03-27T17:09:50.795Z,6.60
2019-03-27T17:12:21.700Z,5.37
2019-03-27T17:14:52.530Z,5.05
2019-03-27T17:17:23.402Z,4.95
2019-03-27T17:19:54.230Z,3.25
2019-03-27T17:22:25.223Z,6.62
2019-03-27T17:24:56.261Z,5.85
2019-03-27T17:27:27.250Z,4.77
2019-03-27T17:29:58.038Z,5.62
2019-03-27T17:32:30.060Z,4.33
2019-03-27T17:35:01.001Z,7.15
2019-03-27T17:37:31.916Z,4.53
2019-03-27T17:40:05.052Z,3.65
2019-03-27T17:42:36.003Z,4.55
2019-03-27T17:45:07.600Z,7.00
2019-03-27T17:47:39.020Z,4.95
2019-03-27T17:50:10.768Z,5.75
2019-03-27T17:52:41.620Z,5.40
2019-03-27T17:55:12.623Z,5.85
2019-03-27T17:57:43.494Z,8.40
2019-03-27T18:00:18.117Z,10.43
2019-03-27T18:02:48.989Z,7.55
2019-03-27T18:05:19.859Z,5.80
2019-03-27T18:07:50.732Z,20.80
2019-03-27T18:10:22.864Z,12.73
2019-03-27T18:12:53.812Z,19.60
2019-03-27T18:15:24.664Z,12.10
2019-03-27T18:17:55.536Z,11.30
2019-03-27T18:20:26.402Z,10.70
2019-03-27T18:22:57.479Z,11.12
2019-03-27T18:25:28.416Z,11.83
2019-03-27T18:27:59.307Z,14.28
2019-03-27T18:30:30.704Z,9.95
2019-03-27T18:33:02.085Z,11.20
2019-03-27T18:35:32.967Z,12.07
2019-03-27T18:38:03.776Z,8.60
2019-03-27T18:40:36.109Z,14.60
2019-03-27T18:43:07.021Z,16.05
2019-03-27T18:45:37.918Z,11.78
2019-03-27T18:48:08.774Z,7.37
2019-03-27T18:50:40.660Z,11.38
2019-03-27T18:53:11.560Z,7.45
2019-03-27T18:55:42.595Z,9.53
2019-03-27T18:58:13.457Z,12.43
2019-03-27T19:00:44.446Z,20.90
2019-03-27T19:03:15.317Z,8.98
2019-03-27T19:05:46.224Z,9.88
2019-03-27T19:08:17.104Z,9.15
2019-03-27T19:10:58.463Z,10.45
2019-03-27T19:13:39.996Z,9.45
2019-03-27T19:16:10.908Z,9.48
2019-03-27T19:18:41.837Z,15.70
2019-03-27T19:21:13.543Z,11.68
2019-03-27T19:23:44.435Z,9.73
2019-03-27T19:26:15.470Z,10.08
2019-03-27T19:28:47.538Z,17.95
2019-03-27T19:31:18.486Z,12.23
2019-03-27T19:33:49.518Z,15.55
2019-03-27T19:36:20.430Z,11.38
2019-03-27T19:38:51.304Z,9.58
2019-03-27T19:41:22.736Z,9.90
2019-03-27T19:43:54.722Z,14.25
2019-03-27T19:46:25.616Z,13.80
2019-03-27T19:48:56.526Z,25.85
2019-03-27T19:51:27.445Z,11.12
2019-03-27T19:53:58.376Z,22.40
2019-03-27T19:56:29.268Z,11.33
2019-03-27T19:59:00.167Z,12.90
2019-03-27T20:01:31.156Z,12.63
2019-03-27T20:04:02.208Z,13.22
2019-03-27T20:06:33.061Z,11.08
2019-03-27T20:09:05.106Z,10.95
2019-03-27T20:11:37.328Z,12.47
2019-03-27T20:14:08.388Z,13.85
2019-03-27T20:16:39.272Z,13.55
2019-03-27T20:19:10.126Z,12.13
2019-03-27T20:21:41.035Z,13.88
2019-03-27T20:24:11.905Z,12.65
2019-03-27T20:26:43.922Z,12.07
2019-03-27T20:29:14.904Z,16.00
2019-03-27T20:31:48.592Z,11.15
2019-03-27T20:34:19.574Z,13.78
2019-03-27T20:36:50.472Z,16.25
2019-03-27T20:39:24.330Z,12.10
2019-03-27T20:41:55.406Z,12.63
2019-03-27T20:44:26.393Z,12.28
2019-03-27T20:46:57.298Z,12.88
2019-03-27T20:49:28.178Z,13.20
2019-03-27T20:51:58.966Z,10.35
2019-03-27T20:54:29.872Z,14.98
2019-03-27T20:57:00.735Z,13.93
2019-03-27T20:59:31.642Z,22.17
2019-03-27T21:02:02.612Z,13.22
2019-03-27T21:04:33.498Z,11.43
2019-03-27T21:07:04.391Z,18.73
2019-03-27T21:09:35.317Z,11.68
2019-03-27T21:12:08.358Z,15.63
2019-03-27T21:14:39.305Z,12.25
2019-03-27T21:17:10.222Z,15.78
2019-03-27T21:19:41.184Z,12.88
2019-03-27T21:22:11.994Z,15.00
2019-03-27T21:24:42.862Z,19.90
2019-03-27T21:27:16.767Z,21.25
2019-03-27T21:29:46.290Z,17.12
2019-03-27T21:32:18.243Z,14.10
2019-03-27T21:34:49.120Z,14.15
2019-03-27T21:37:20.014Z,11.68
2019-03-27T21:39:50.920Z,11.88
2019-03-27T21:42:22.352Z,14.18
2019-03-27T21:44:53.212Z,15.28
2019-03-27T21:47:24.057Z,14.30
2019-03-27T21:49:54.932Z,15.18
2019-03-27T21:52:25.825Z,16.02
2019-03-27T21:54:56.822Z,14.90
2019-03-27T21:57:27.693Z,11.20
2019-03-27T21:59:58.723Z,18.73
2019-03-27T22:02:30.710Z,15.58
2019-03-27T22:05:01.620Z,21.87
2019-03-27T22:07:32.484Z,13.50
2019-03-27T22:10:03.485Z,14.38
2019-03-27T22:12:38.077Z,28.77
2019-03-27T22:15:08.772Z,14.45
2019-03-27T22:17:39.752Z,14.85
2019-03-27T22:20:13.458Z,18.45
2019-03-27T22:22:44.352Z,18.48
2019-03-27T22:25:15.264Z,16.55
2019-03-27T22:27:46.115Z,22.20
2019-03-27T22:30:17.046Z,18.40
2019-03-27T22:32:47.922Z,16.97
2019-03-27T22:35:18.818Z,20.02
2019-03-27T22:37:50.085Z,18.85
2019-03-27T22:40:20.985Z,24.02
2019-03-27T22:42:52.484Z,23.80
2019-03-27T22:45:23.395Z,21.02
2019-03-27T22:47:54.291Z,17.82
2019-03-27T22:50:25.177Z,16.35
2019-03-27T22:52:56.075Z,15.70
2019-03-27T22:55:26.962Z,16.82
2019-03-27T22:57:57.848Z,16.42
2019-03-27T23:00:42.054Z,19.50
2019-03-27T23:03:18.447Z,17.70
2019-03-27T23:05:45.938Z,14.98
2019-03-27T23:08:16.910Z,19.50
2019-03-27T23:10:47.746Z,16.05
2019-03-27T23:13:20.704Z,16.02
2019-03-27T23:15:51.609Z,19.37
2019-03-27T23:18:22.553Z,20.23
2019-03-27T23:20:53.474Z,20.55
2019-03-27T23:23:24.397Z,18.02
2019-03-27T23:26:02.864Z,18.92
2019-03-27T23:28:27.868Z,13.45
2019-03-27T23:30:58.816Z,24.12
2019-03-27T23:33:31.986Z,17.15
2019-03-27T23:36:02.904Z,19.75
2019-03-27T23:38:33.761Z,18.95
2019-03-27T23:41:04.722Z,19.02
2019-03-27T23:43:35.621Z,15.15
2019-03-27T23:46:06.464Z,14.87
2019-03-27T23:48:37.347Z,16.07
2019-03-27T23:51:08.312Z,16.45
2019-03-27T23:53:39.162Z,16.60
2019-03-27T23:56:16.597Z,18.67
2019-03-27T23:58:42.592Z,14.60
